Aeroporto :
LOGIN :

Iscrizione | Disclaimer

   EN    FR    IT 

 










Sommario :    VFR   VFR Marginale   IFR   IFR Intensivo   IFR Molto Intensivo
Visibilità : 
Base nubi : 
>= 8 km
>= 3000ft
5 / 8 km
1000 / 3000 ft
1500m / 5 km
500 / 1000 ft
800 / 1500m
200 / 500 ft
< 800m
< 200 ft
Simboli :   Temporali  Nebbia  Neve Forte  Precipitazioni Forti  Vento > 20 kt
SIGMETs :   Varie  Temporali  Ghiacco  Turbolenza  Onda orograficha  Ceneri Vulcaniche






- Altitudine del aeroporto : 325 ft
- Codice IATA : BES


LFRB - Brest

ULTIMO METAR :
  • 021500Z AUTO 25010KT 9999 FEW018 SCT023 OVC033 09/06 Q1034 NOSIG

METARs OBSOLETI :
  • 021430Z AUTO 25008KT 9999 FEW022 OVC031 10/06 Q1034 NOSIG
  • 021400Z AUTO 24008KT 9999 OVC031 10/05 Q1034 NOSIG
  • 021330Z AUTO 25008KT 9999 OVC030 10/05 Q1034 NOSIG
  • 021300Z AUTO 24006KT 9999 OVC029 10/06 Q1034 NOSIG
  • 021230Z AUTO 24008KT 9999 OVC029 10/05 Q1034 NOSIG

TAF TAF LFRB
Valido dal 02 a 12 ore il 03 a 18 ore UTC


021100Z 0212/0318 26006KT 9999 SCT025 OVC035
PROB30
TEMPO 0300/0307 0500 FG VV///
ATIS : +33 2 98 32 02 71



MetMap, La meteo Aeronautica in un colpo d'occhio ! - Copyright ORBIFLY Dicembre 2007 - Disclaimer

ORBIFLY MET'MAP TEAM :

Programmazione e sviluppo : Alexandra Zaïnal
Concezione : Baudouin d'Aumeries
Supporto tecnico e logistico : Manuel Goepfert
Aiuto : Marc-Olivier Méhu
Aiuto per la traduzione : Arnaldo La Scala




FONTI E CREDITI :

   NOAA